sensor_id;sensor_type;location;lat;lon;timestamp;P1;durP1;ratioP1;P2;durP2;ratioP2
45354;SDS011;31091;48.758;9.150;2023-06-26T00:01:47;11.50;;;7.40;;
45354;SDS011;31091;48.758;9.150;2023-06-26T00:04:32;9.70;;;6.00;;
45354;SDS011;31091;48.758;9.150;2023-06-26T00:07:18;10.18;;;6.70;;
45354;SDS011;31091;48.758;9.150;2023-06-26T00:10:04;10.48;;;6.72;;
45354;SDS011;31091;48.758;9.150;2023-06-26T00:12:49;12.15;;;7.15;;
45354;SDS011;31091;48.758;9.150;2023-06-26T00:15:35;12.25;;;7.07;;
45354;SDS011;31091;48.758;9.150;2023-06-26T00:18:21;12.18;;;6.82;;
45354;SDS011;31091;48.758;9.150;2023-06-26T00:21:08;10.15;;;6.47;;
45354;SDS011;31091;48.758;9.150;2023-06-26T00:23:54;10.05;;;6.72;;
45354;SDS011;31091;48.758;9.150;2023-06-26T00:26:39;10.45;;;6.75;;
45354;SDS011;31091;48.758;9.150;2023-06-26T00:29:25;10.82;;;7.07;;
45354;SDS011;31091;48.758;9.150;2023-06-26T00:32:10;10.25;;;6.90;;
45354;SDS011;31091;48.758;9.150;2023-06-26T00:34:56;11.15;;;7.07;;
45354;SDS011;31091;48.758;9.150;2023-06-26T00:37:41;12.48;;;7.10;;
45354;SDS011;31091;48.758;9.150;2023-06-26T00:40:27;10.38;;;6.57;;
45354;SDS011;31091;48.758;9.150;2023-06-26T00:43:12;10.68;;;6.82;;
45354;SDS011;31091;48.758;9.150;2023-06-26T00:45:58;11.52;;;7.25;;
45354;SDS011;31091;48.758;9.150;2023-06-26T00:48:44;11.32;;;7.50;;
45354;SDS011;31091;48.758;9.150;2023-06-26T00:51:31;9.30;;;6.60;;
45354;SDS011;31091;48.758;9.150;2023-06-26T00:54:16;9.48;;;6.72;;
45354;SDS011;31091;48.758;9.150;2023-06-26T00:57:05;11.07;;;6.82;;
45354;SDS011;31091;48.758;9.150;2023-06-26T00:59:50;10.75;;;6.75;;
45354;SDS011;31091;48.758;9.150;2023-06-26T01:02:36;9.90;;;6.88;;
45354;SDS011;31091;48.758;9.150;2023-06-26T01:05:24;9.63;;;6.57;;
45354;SDS011;31091;48.758;9.150;2023-06-26T01:08:10;11.35;;;7.68;;
45354;SDS011;31091;48.758;9.150;2023-06-26T01:10:55;8.95;;;6.88;;
45354;SDS011;31091;48.758;9.150;2023-06-26T01:13:42;9.93;;;7.20;;
45354;SDS011;31091;48.758;9.150;2023-06-26T01:16:29;10.98;;;7.50;;
45354;SDS011;31091;48.758;9.150;2023-06-26T01:19:23;10.95;;;7.28;;
45354;SDS011;31091;48.758;9.150;2023-06-26T01:22:24;10.65;;;6.95;;
45354;SDS011;31091;48.758;9.150;2023-06-26T01:28:10;10.35;;;6.70;;
45354;SDS011;31091;48.758;9.150;2023-06-26T01:30:56;12.02;;;7.07;;
45354;SDS011;31091;48.758;9.150;2023-06-26T01:33:43;9.55;;;6.68;;
45354;SDS011;31091;48.758;9.150;2023-06-26T01:36:28;10.82;;;6.68;;
45354;SDS011;31091;48.758;9.150;2023-06-26T01:39:15;10.75;;;7.20;;
45354;SDS011;31091;48.758;9.150;2023-06-26T01:42:00;9.77;;;6.50;;
45354;SDS011;31091;48.758;9.150;2023-06-26T01:44:46;9.93;;;6.90;;
45354;SDS011;31091;48.758;9.150;2023-06-26T01:47:32;10.82;;;7.25;;
45354;SDS011;31091;48.758;9.150;2023-06-26T01:50:24;9.93;;;6.90;;
45354;SDS011;31091;48.758;9.150;2023-06-26T01:53:12;10.27;;;6.72;;
45354;SDS011;31091;48.758;9.150;2023-06-26T01:55:59;10.13;;;7.10;;
45354;SDS011;31091;48.758;9.150;2023-06-26T01:58:47;9.93;;;6.57;;
45354;SDS011;31091;48.758;9.150;2023-06-26T02:01:33;11.50;;;7.75;;
45354;SDS011;31091;48.758;9.150;2023-06-26T02:04:19;11.55;;;6.65;;
45354;SDS011;31091;48.758;9.150;2023-06-26T02:07:04;9.85;;;6.80;;
45354;SDS011;31091;48.758;9.150;2023-06-26T02:09:50;10.13;;;6.80;;
45354;SDS011;31091;48.758;9.150;2023-06-26T02:12:36;9.02;;;5.97;;
45354;SDS011;31091;48.758;9.150;2023-06-26T02:15:22;10.05;;;6.70;;
45354;SDS011;31091;48.758;9.150;2023-06-26T02:18:08;10.88;;;6.95;;
45354;SDS011;31091;48.758;9.150;2023-06-26T02:20:53;10.68;;;6.68;;
45354;SDS011;31091;48.758;9.150;2023-06-26T02:23:39;11.38;;;6.40;;
45354;SDS011;31091;48.758;9.150;2023-06-26T02:26:25;9.68;;;6.35;;
45354;SDS011;31091;48.758;9.150;2023-06-26T02:29:10;10.63;;;7.10;;
45354;SDS011;31091;48.758;9.150;2023-06-26T02:31:56;10.52;;;6.43;;
45354;SDS011;31091;48.758;9.150;2023-06-26T02:34:41;10.50;;;6.68;;
45354;SDS011;31091;48.758;9.150;2023-06-26T02:37:27;9.35;;;6.75;;
45354;SDS011;31091;48.758;9.150;2023-06-26T02:40:12;10.32;;;6.93;;
45354;SDS011;31091;48.758;9.150;2023-06-26T02:42:58;11.60;;;6.82;;
45354;SDS011;31091;48.758;9.150;2023-06-26T02:45:43;12.18;;;7.15;;
45354;SDS011;31091;48.758;9.150;2023-06-26T02:48:29;10.35;;;7.28;;
45354;SDS011;31091;48.758;9.150;2023-06-26T02:51:14;9.13;;;6.50;;
45354;SDS011;31091;48.758;9.150;2023-06-26T02:54:00;10.50;;;6.88;;
45354;SDS011;31091;48.758;9.150;2023-06-26T02:56:46;12.43;;;7.25;;
45354;SDS011;31091;48.758;9.150;2023-06-26T02:59:32;10.57;;;6.70;;
45354;SDS011;31091;48.758;9.150;2023-06-26T03:02:17;10.15;;;7.13;;
45354;SDS011;31091;48.758;9.150;2023-06-26T03:05:03;9.07;;;6.03;;
45354;SDS011;31091;48.758;9.150;2023-06-26T03:07:49;10.20;;;6.50;;
45354;SDS011;31091;48.758;9.150;2023-06-26T03:10:35;9.45;;;6.38;;
45354;SDS011;31091;48.758;9.150;2023-06-26T03:13:20;9.55;;;6.57;;
45354;SDS011;31091;48.758;9.150;2023-06-26T03:16:06;9.70;;;6.00;;
45354;SDS011;31091;48.758;9.150;2023-06-26T03:18:51;9.13;;;6.35;;
45354;SDS011;31091;48.758;9.150;2023-06-26T03:21:37;14.55;;;7.25;;
45354;SDS011;31091;48.758;9.150;2023-06-26T03:24:22;9.27;;;6.88;;
45354;SDS011;31091;48.758;9.150;2023-06-26T03:27:08;11.20;;;7.18;;
45354;SDS011;31091;48.758;9.150;2023-06-26T03:29:55;11.68;;;6.88;;
45354;SDS011;31091;48.758;9.150;2023-06-26T03:32:40;11.00;;;7.60;;
45354;SDS011;31091;48.758;9.150;2023-06-26T03:35:26;10.40;;;7.20;;
45354;SDS011;31091;48.758;9.150;2023-06-26T03:38:11;9.60;;;6.72;;
45354;SDS011;31091;48.758;9.150;2023-06-26T03:40:57;11.45;;;6.53;;
45354;SDS011;31091;48.758;9.150;2023-06-26T03:43:42;9.50;;;7.10;;
45354;SDS011;31091;48.758;9.150;2023-06-26T03:46:28;9.88;;;6.45;;
45354;SDS011;31091;48.758;9.150;2023-06-26T03:49:14;11.38;;;6.25;;
45354;SDS011;31091;48.758;9.150;2023-06-26T03:51:59;9.73;;;6.63;;
45354;SDS011;31091;48.758;9.150;2023-06-26T03:54:45;10.60;;;6.72;;
45354;SDS011;31091;48.758;9.150;2023-06-26T03:57:30;10.38;;;6.68;;
45354;SDS011;31091;48.758;9.150;2023-06-26T04:00:16;10.93;;;6.20;;
45354;SDS011;31091;48.758;9.150;2023-06-26T04:03:02;10.60;;;6.10;;
45354;SDS011;31091;48.758;9.150;2023-06-26T04:05:48;9.85;;;6.53;;
45354;SDS011;31091;48.758;9.150;2023-06-26T04:08:33;9.30;;;6.55;;
45354;SDS011;31091;48.758;9.150;2023-06-26T04:11:19;11.45;;;6.97;;
45354;SDS011;31091;48.758;9.150;2023-06-26T04:14:04;9.65;;;6.40;;
45354;SDS011;31091;48.758;9.150;2023-06-26T04:16:50;9.20;;;6.15;;
45354;SDS011;31091;48.758;9.150;2023-06-26T04:19:35;10.65;;;7.68;;
45354;SDS011;31091;48.758;9.150;2023-06-26T04:22:21;10.13;;;6.63;;
45354;SDS011;31091;48.758;9.150;2023-06-26T04:25:07;11.43;;;6.43;;
45354;SDS011;31091;48.758;9.150;2023-06-26T04:27:53;11.77;;;7.07;;
45354;SDS011;31091;48.758;9.150;2023-06-26T04:30:38;8.95;;;6.00;;
45354;SDS011;31091;48.758;9.150;2023-06-26T04:33:24;9.80;;;6.32;;
45354;SDS011;31091;48.758;9.150;2023-06-26T04:36:10;10.93;;;6.80;;
45354;SDS011;31091;48.758;9.150;2023-06-26T04:38:56;10.60;;;6.63;;
45354;SDS011;31091;48.758;9.150;2023-06-26T04:41:44;12.55;;;7.35;;
45354;SDS011;31091;48.758;9.150;2023-06-26T04:44:30;10.88;;;6.20;;
45354;SDS011;31091;48.758;9.150;2023-06-26T04:47:15;12.05;;;6.75;;
45354;SDS011;31091;48.758;9.150;2023-06-26T04:50:01;11.43;;;6.88;;
45354;SDS011;31091;48.758;9.150;2023-06-26T04:52:46;9.55;;;6.22;;
45354;SDS011;31091;48.758;9.150;2023-06-26T04:55:32;9.70;;;6.38;;
45354;SDS011;31091;48.758;9.150;2023-06-26T04:58:18;10.20;;;7.10;;
45354;SDS011;31091;48.758;9.150;2023-06-26T05:01:03;11.50;;;6.60;;
45354;SDS011;31091;48.758;9.150;2023-06-26T05:03:52;9.83;;;6.57;;
45354;SDS011;31091;48.758;9.150;2023-06-26T05:06:37;11.10;;;6.93;;
45354;SDS011;31091;48.758;9.150;2023-06-26T05:09:23;10.02;;;6.65;;
45354;SDS011;31091;48.758;9.150;2023-06-26T05:12:08;13.95;;;7.78;;
45354;SDS011;31091;48.758;9.150;2023-06-26T05:14:54;11.13;;;6.93;;
45354;SDS011;31091;48.758;9.150;2023-06-26T05:17:39;11.25;;;6.72;;
45354;SDS011;31091;48.758;9.150;2023-06-26T05:20:25;10.05;;;7.15;;
45354;SDS011;31091;48.758;9.150;2023-06-26T05:23:11;13.93;;;6.95;;
45354;SDS011;31091;48.758;9.150;2023-06-26T05:25:57;11.93;;;6.70;;
45354;SDS011;31091;48.758;9.150;2023-06-26T05:28:43;10.63;;;6.90;;
45354;SDS011;31091;48.758;9.150;2023-06-26T05:31:33;15.20;;;7.43;;
45354;SDS011;31091;48.758;9.150;2023-06-26T05:34:20;29.55;;;7.32;;
45354;SDS011;31091;48.758;9.150;2023-06-26T05:37:07;13.80;;;7.10;;
45354;SDS011;31091;48.758;9.150;2023-06-26T05:39:53;10.40;;;5.50;;
45354;SDS011;31091;48.758;9.150;2023-06-26T05:42:38;8.77;;;5.53;;
45354;SDS011;31091;48.758;9.150;2023-06-26T05:45:24;10.23;;;6.63;;
45354;SDS011;31091;48.758;9.150;2023-06-26T05:48:10;10.52;;;6.60;;
45354;SDS011;31091;48.758;9.150;2023-06-26T05:50:55;9.63;;;5.88;;
45354;SDS011;31091;48.758;9.150;2023-06-26T05:53:41;8.40;;;5.97;;
45354;SDS011;31091;48.758;9.150;2023-06-26T05:56:27;13.90;;;6.50;;
45354;SDS011;31091;48.758;9.150;2023-06-26T05:59:13;13.85;;;6.72;;
45354;SDS011;31091;48.758;9.150;2023-06-26T06:01:59;9.65;;;5.63;;
45354;SDS011;31091;48.758;9.150;2023-06-26T06:04:45;14.02;;;5.80;;
45354;SDS011;31091;48.758;9.150;2023-06-26T06:07:31;10.02;;;6.10;;
45354;SDS011;31091;48.758;9.150;2023-06-26T06:10:17;9.82;;;5.30;;
45354;SDS011;31091;48.758;9.150;2023-06-26T06:13:03;8.18;;;5.70;;
45354;SDS011;31091;48.758;9.150;2023-06-26T06:15:49;8.38;;;5.80;;
45354;SDS011;31091;48.758;9.150;2023-06-26T06:18:34;8.82;;;5.75;;
45354;SDS011;31091;48.758;9.150;2023-06-26T06:21:20;8.75;;;5.93;;
45354;SDS011;31091;48.758;9.150;2023-06-26T06:24:05;8.57;;;5.85;;
45354;SDS011;31091;48.758;9.150;2023-06-26T06:26:52;9.68;;;6.53;;
45354;SDS011;31091;48.758;9.150;2023-06-26T06:29:40;9.00;;;6.18;;
45354;SDS011;31091;48.758;9.150;2023-06-26T06:32:26;10.13;;;5.97;;
45354;SDS011;31091;48.758;9.150;2023-06-26T06:35:11;8.32;;;5.43;;
45354;SDS011;31091;48.758;9.150;2023-06-26T06:37:57;9.80;;;5.90;;
45354;SDS011;31091;48.758;9.150;2023-06-26T06:40:43;8.85;;;5.97;;
45354;SDS011;31091;48.758;9.150;2023-06-26T06:43:28;9.63;;;5.85;;
45354;SDS011;31091;48.758;9.150;2023-06-26T06:46:14;8.43;;;5.13;;
45354;SDS011;31091;48.758;9.150;2023-06-26T06:48:59;9.35;;;4.93;;
45354;SDS011;31091;48.758;9.150;2023-06-26T06:51:45;11.65;;;5.65;;
45354;SDS011;31091;48.758;9.150;2023-06-26T06:54:31;7.13;;;5.07;;
45354;SDS011;31091;48.758;9.150;2023-06-26T06:57:16;8.52;;;5.82;;
45354;SDS011;31091;48.758;9.150;2023-06-26T07:00:03;11.02;;;5.28;;
45354;SDS011;31091;48.758;9.150;2023-06-26T07:02:49;7.03;;;4.72;;
45354;SDS011;31091;48.758;9.150;2023-06-26T07:05:35;11.55;;;5.22;;
45354;SDS011;31091;48.758;9.150;2023-06-26T07:08:21;9.10;;;5.20;;
45354;SDS011;31091;48.758;9.150;2023-06-26T07:11:06;6.95;;;5.00;;
45354;SDS011;31091;48.758;9.150;2023-06-26T07:13:52;8.93;;;5.35;;
45354;SDS011;31091;48.758;9.150;2023-06-26T07:16:37;7.88;;;5.32;;
45354;SDS011;31091;48.758;9.150;2023-06-26T07:19:23;8.02;;;5.32;;
45354;SDS011;31091;48.758;9.150;2023-06-26T07:22:08;8.52;;;5.70;;
45354;SDS011;31091;48.758;9.150;2023-06-26T07:24:54;7.50;;;5.15;;
45354;SDS011;31091;48.758;9.150;2023-06-26T07:27:40;8.23;;;5.65;;
45354;SDS011;31091;48.758;9.150;2023-06-26T07:30:26;7.22;;;5.07;;
45354;SDS011;31091;48.758;9.150;2023-06-26T07:33:11;7.85;;;4.95;;
45354;SDS011;31091;48.758;9.150;2023-06-26T07:35:57;11.45;;;6.28;;
45354;SDS011;31091;48.758;9.150;2023-06-26T07:38:42;7.75;;;5.07;;
45354;SDS011;31091;48.758;9.150;2023-06-26T07:41:28;9.13;;;5.35;;
45354;SDS011;31091;48.758;9.150;2023-06-26T07:44:15;8.32;;;4.55;;
45354;SDS011;31091;48.758;9.150;2023-06-26T07:47:01;7.18;;;4.85;;
45354;SDS011;31091;48.758;9.150;2023-06-26T07:49:46;8.13;;;4.78;;
45354;SDS011;31091;48.758;9.150;2023-06-26T07:52:32;6.80;;;4.65;;
45354;SDS011;31091;48.758;9.150;2023-06-26T07:55:17;7.45;;;4.80;;
45354;SDS011;31091;48.758;9.150;2023-06-26T07:58:03;6.72;;;4.35;;
45354;SDS011;31091;48.758;9.150;2023-06-26T08:00:49;8.75;;;5.13;;
45354;SDS011;31091;48.758;9.150;2023-06-26T08:03:34;8.68;;;5.20;;
45354;SDS011;31091;48.758;9.150;2023-06-26T08:06:20;6.60;;;4.35;;
45354;SDS011;31091;48.758;9.150;2023-06-26T08:09:08;7.22;;;3.92;;
45354;SDS011;31091;48.758;9.150;2023-06-26T08:11:54;6.03;;;4.43;;
45354;SDS011;31091;48.758;9.150;2023-06-26T08:14:39;5.47;;;4.03;;
45354;SDS011;31091;48.758;9.150;2023-06-26T08:17:25;7.07;;;3.95;;
45354;SDS011;31091;48.758;9.150;2023-06-26T08:20:11;8.63;;;4.60;;
45354;SDS011;31091;48.758;9.150;2023-06-26T08:22:56;6.68;;;3.92;;
45354;SDS011;31091;48.758;9.150;2023-06-26T08:25:42;12.75;;;5.10;;
45354;SDS011;31091;48.758;9.150;2023-06-26T08:28:28;13.32;;;5.07;;
45354;SDS011;31091;48.758;9.150;2023-06-26T08:31:14;4.85;;;3.85;;
45354;SDS011;31091;48.758;9.150;2023-06-26T08:34:00;5.05;;;3.70;;
45354;SDS011;31091;48.758;9.150;2023-06-26T08:36:45;7.80;;;3.80;;
45354;SDS011;31091;48.758;9.150;2023-06-26T08:39:31;6.80;;;4.18;;
45354;SDS011;31091;48.758;9.150;2023-06-26T08:42:16;7.93;;;4.53;;
45354;SDS011;31091;48.758;9.150;2023-06-26T08:45:02;8.70;;;4.93;;
45354;SDS011;31091;48.758;9.150;2023-06-26T08:47:48;6.03;;;4.18;;
45354;SDS011;31091;48.758;9.150;2023-06-26T08:50:36;5.65;;;4.28;;
45354;SDS011;31091;48.758;9.150;2023-06-26T08:53:29;5.53;;;4.07;;
45354;SDS011;31091;48.758;9.150;2023-06-26T08:56:18;6.30;;;4.20;;
45354;SDS011;31091;48.758;9.150;2023-06-26T08:59:06;7.80;;;4.40;;
45354;SDS011;31091;48.758;9.150;2023-06-26T09:01:52;8.00;;;4.10;;
45354;SDS011;31091;48.758;9.150;2023-06-26T09:04:37;4.90;;;3.58;;
45354;SDS011;31091;48.758;9.150;2023-06-26T09:07:24;7.70;;;4.53;;
45354;SDS011;31091;48.758;9.150;2023-06-26T09:10:09;8.88;;;4.32;;
45354;SDS011;31091;48.758;9.150;2023-06-26T09:12:55;6.78;;;4.72;;
45354;SDS011;31091;48.758;9.150;2023-06-26T09:15:42;6.18;;;3.97;;
45354;SDS011;31091;48.758;9.150;2023-06-26T09:18:28;9.57;;;5.00;;
45354;SDS011;31091;48.758;9.150;2023-06-26T09:21:14;5.72;;;4.25;;
45354;SDS011;31091;48.758;9.150;2023-06-26T09:23:59;5.78;;;4.28;;
45354;SDS011;31091;48.758;9.150;2023-06-26T09:26:45;8.13;;;4.35;;
45354;SDS011;31091;48.758;9.150;2023-06-26T09:29:31;8.65;;;5.15;;
45354;SDS011;31091;48.758;9.150;2023-06-26T09:32:18;5.93;;;4.70;;
45354;SDS011;31091;48.758;9.150;2023-06-26T09:35:04;6.88;;;4.78;;
45354;SDS011;31091;48.758;9.150;2023-06-26T09:37:49;7.68;;;4.85;;
45354;SDS011;31091;48.758;9.150;2023-06-26T09:40:35;7.97;;;4.50;;
45354;SDS011;31091;48.758;9.150;2023-06-26T09:43:20;6.63;;;4.60;;
45354;SDS011;31091;48.758;9.150;2023-06-26T09:46:06;6.95;;;4.70;;
45354;SDS011;31091;48.758;9.150;2023-06-26T09:49:02;5.88;;;4.25;;
45354;SDS011;31091;48.758;9.150;2023-06-26T09:51:49;6.68;;;4.30;;
45354;SDS011;31091;48.758;9.150;2023-06-26T09:54:35;8.00;;;4.65;;
45354;SDS011;31091;48.758;9.150;2023-06-26T09:57:21;8.77;;;4.18;;
45354;SDS011;31091;48.758;9.150;2023-06-26T10:00:07;5.50;;;4.25;;
45354;SDS011;31091;48.758;9.150;2023-06-26T10:02:54;5.63;;;4.22;;
45354;SDS011;31091;48.758;9.150;2023-06-26T10:05:40;7.70;;;4.88;;
45354;SDS011;31091;48.758;9.150;2023-06-26T10:08:26;6.20;;;4.70;;
45354;SDS011;31091;48.758;9.150;2023-06-26T10:11:14;8.23;;;4.80;;
45354;SDS011;31091;48.758;9.150;2023-06-26T10:14:01;6.60;;;4.50;;
45354;SDS011;31091;48.758;9.150;2023-06-26T10:16:49;7.03;;;4.18;;
45354;SDS011;31091;48.758;9.150;2023-06-26T10:19:35;8.30;;;4.93;;
45354;SDS011;31091;48.758;9.150;2023-06-26T10:22:24;7.45;;;4.65;;
45354;SDS011;31091;48.758;9.150;2023-06-26T10:25:10;6.85;;;4.88;;
45354;SDS011;31091;48.758;9.150;2023-06-26T10:27:58;6.03;;;4.78;;
45354;SDS011;31091;48.758;9.150;2023-06-26T10:30:45;9.63;;;4.95;;
45354;SDS011;31091;48.758;9.150;2023-06-26T10:33:32;6.10;;;4.10;;
45354;SDS011;31091;48.758;9.150;2023-06-26T10:36:19;8.07;;;5.38;;
45354;SDS011;31091;48.758;9.150;2023-06-26T10:39:05;6.28;;;4.93;;
45354;SDS011;31091;48.758;9.150;2023-06-26T10:41:50;8.00;;;5.60;;
45354;SDS011;31091;48.758;9.150;2023-06-26T10:44:42;10.23;;;5.13;;
45354;SDS011;31091;48.758;9.150;2023-06-26T10:50:30;8.05;;;5.18;;
45354;SDS011;31091;48.758;9.150;2023-06-26T10:56:06;14.23;;;5.78;;
45354;SDS011;31091;48.758;9.150;2023-06-26T10:58:52;9.73;;;5.43;;
45354;SDS011;31091;48.758;9.150;2023-06-26T11:01:41;8.05;;;5.55;;
45354;SDS011;31091;48.758;9.150;2023-06-26T11:04:46;8.50;;;5.10;;
45354;SDS011;31091;48.758;9.150;2023-06-26T11:07:31;7.35;;;4.85;;
45354;SDS011;31091;48.758;9.150;2023-06-26T11:10:17;32.78;;;7.43;;
45354;SDS011;31091;48.758;9.150;2023-06-26T11:13:02;8.07;;;5.40;;
45354;SDS011;31091;48.758;9.150;2023-06-26T11:15:50;9.13;;;5.53;;
45354;SDS011;31091;48.758;9.150;2023-06-26T11:18:35;14.27;;;5.70;;
45354;SDS011;31091;48.758;9.150;2023-06-26T11:21:21;7.47;;;5.18;;
45354;SDS011;31091;48.758;9.150;2023-06-26T11:24:08;8.27;;;5.45;;
45354;SDS011;31091;48.758;9.150;2023-06-26T11:26:53;11.35;;;5.50;;
45354;SDS011;31091;48.758;9.150;2023-06-26T11:29:46;7.05;;;4.82;;
45354;SDS011;31091;48.758;9.150;2023-06-26T11:32:32;9.38;;;5.43;;
45354;SDS011;31091;48.758;9.150;2023-06-26T11:35:24;8.52;;;5.20;;
45354;SDS011;31091;48.758;9.150;2023-06-26T11:38:15;10.25;;;5.63;;
45354;SDS011;31091;48.758;9.150;2023-06-26T11:41:00;8.40;;;4.97;;
45354;SDS011;31091;48.758;9.150;2023-06-26T11:43:45;10.07;;;5.35;;
45354;SDS011;31091;48.758;9.150;2023-06-26T11:46:31;7.20;;;5.15;;
45354;SDS011;31091;48.758;9.150;2023-06-26T11:49:16;9.43;;;5.38;;
45354;SDS011;31091;48.758;9.150;2023-06-26T11:52:02;8.20;;;5.78;;
45354;SDS011;31091;48.758;9.150;2023-06-26T11:54:47;9.60;;;6.00;;
45354;SDS011;31091;48.758;9.150;2023-06-26T11:57:33;8.30;;;5.25;;
45354;SDS011;31091;48.758;9.150;2023-06-26T12:00:18;8.05;;;4.97;;
45354;SDS011;31091;48.758;9.150;2023-06-26T12:03:03;8.48;;;5.70;;
45354;SDS011;31091;48.758;9.150;2023-06-26T12:05:49;10.48;;;5.15;;
45354;SDS011;31091;48.758;9.150;2023-06-26T12:08:37;9.85;;;5.32;;
45354;SDS011;31091;48.758;9.150;2023-06-26T12:11:22;7.70;;;5.70;;
45354;SDS011;31091;48.758;9.150;2023-06-26T12:14:09;8.48;;;5.40;;
45354;SDS011;31091;48.758;9.150;2023-06-26T12:16:54;9.55;;;5.70;;
45354;SDS011;31091;48.758;9.150;2023-06-26T12:19:43;6.80;;;5.05;;
45354;SDS011;31091;48.758;9.150;2023-06-26T12:25:14;9.80;;;5.10;;
45354;SDS011;31091;48.758;9.150;2023-06-26T12:27:59;11.60;;;5.63;;
45354;SDS011;31091;48.758;9.150;2023-06-26T12:31:09;8.00;;;5.00;;
45354;SDS011;31091;48.758;9.150;2023-06-26T12:33:53;7.00;;;5.10;;
45354;SDS011;31091;48.758;9.150;2023-06-26T12:36:41;8.70;;;5.40;;
45354;SDS011;31091;48.758;9.150;2023-06-26T12:39:27;8.85;;;5.00;;
45354;SDS011;31091;48.758;9.150;2023-06-26T12:42:13;8.52;;;5.38;;
45354;SDS011;31091;48.758;9.150;2023-06-26T12:44:59;7.68;;;5.45;;
45354;SDS011;31091;48.758;9.150;2023-06-26T12:47:44;7.18;;;5.00;;
45354;SDS011;31091;48.758;9.150;2023-06-26T12:50:36;7.78;;;5.60;;
45354;SDS011;31091;48.758;9.150;2023-06-26T12:53:21;10.10;;;5.28;;
45354;SDS011;31091;48.758;9.150;2023-06-26T12:56:06;7.55;;;4.97;;
45354;SDS011;31091;48.758;9.150;2023-06-26T12:58:52;8.73;;;5.18;;
45354;SDS011;31091;48.758;9.150;2023-06-26T13:01:37;7.40;;;5.22;;
45354;SDS011;31091;48.758;9.150;2023-06-26T13:04:23;21.88;;;5.68;;
45354;SDS011;31091;48.758;9.150;2023-06-26T13:07:08;8.70;;;5.65;;
45354;SDS011;31091;48.758;9.150;2023-06-26T13:09:54;10.15;;;5.32;;
45354;SDS011;31091;48.758;9.150;2023-06-26T13:12:40;8.30;;;5.75;;
45354;SDS011;31091;48.758;9.150;2023-06-26T13:15:25;7.80;;;5.35;;
45354;SDS011;31091;48.758;9.150;2023-06-26T13:18:11;7.90;;;4.95;;
45354;SDS011;31091;48.758;9.150;2023-06-26T13:20:56;8.57;;;5.35;;
45354;SDS011;31091;48.758;9.150;2023-06-26T13:23:41;8.60;;;5.13;;
45354;SDS011;31091;48.758;9.150;2023-06-26T13:26:26;9.70;;;5.03;;
45354;SDS011;31091;48.758;9.150;2023-06-26T13:29:13;8.75;;;5.22;;
45354;SDS011;31091;48.758;9.150;2023-06-26T13:31:58;6.28;;;4.55;;
45354;SDS011;31091;48.758;9.150;2023-06-26T13:34:44;7.28;;;4.45;;
45354;SDS011;31091;48.758;9.150;2023-06-26T13:37:29;9.20;;;4.93;;
45354;SDS011;31091;48.758;9.150;2023-06-26T13:40:14;9.00;;;5.32;;
45354;SDS011;31091;48.758;9.150;2023-06-26T13:43:03;6.97;;;5.00;;
45354;SDS011;31091;48.758;9.150;2023-06-26T13:46:02;10.18;;;5.03;;
45354;SDS011;31091;48.758;9.150;2023-06-26T13:48:50;6.22;;;4.40;;
45354;SDS011;31091;48.758;9.150;2023-06-26T13:51:35;6.30;;;4.38;;
45354;SDS011;31091;48.758;9.150;2023-06-26T13:54:21;8.88;;;4.90;;
45354;SDS011;31091;48.758;9.150;2023-06-26T13:57:06;8.15;;;4.78;;
45354;SDS011;31091;48.758;9.150;2023-06-26T13:59:51;7.18;;;4.43;;
45354;SDS011;31091;48.758;9.150;2023-06-26T14:02:36;8.75;;;5.45;;
45354;SDS011;31091;48.758;9.150;2023-06-26T14:05:22;8.80;;;4.20;;
45354;SDS011;31091;48.758;9.150;2023-06-26T14:08:07;7.05;;;4.55;;
45354;SDS011;31091;48.758;9.150;2023-06-26T14:10:53;7.20;;;5.28;;
45354;SDS011;31091;48.758;9.150;2023-06-26T14:13:38;7.15;;;4.47;;
45354;SDS011;31091;48.758;9.150;2023-06-26T14:16:24;7.65;;;4.30;;
45354;SDS011;31091;48.758;9.150;2023-06-26T14:19:10;7.07;;;4.20;;
45354;SDS011;31091;48.758;9.150;2023-06-26T14:22:00;6.53;;;3.60;;
45354;SDS011;31091;48.758;9.150;2023-06-26T14:24:46;5.82;;;3.35;;
45354;SDS011;31091;48.758;9.150;2023-06-26T14:27:31;7.47;;;3.88;;
45354;SDS011;31091;48.758;9.150;2023-06-26T14:30:17;6.63;;;3.90;;
45354;SDS011;31091;48.758;9.150;2023-06-26T14:33:02;11.98;;;4.30;;
45354;SDS011;31091;48.758;9.150;2023-06-26T14:35:48;4.90;;;3.63;;
45354;SDS011;31091;48.758;9.150;2023-06-26T14:38:33;7.28;;;3.90;;
45354;SDS011;31091;48.758;9.150;2023-06-26T14:41:19;5.82;;;3.83;;
45354;SDS011;31091;48.758;9.150;2023-06-26T14:44:04;5.45;;;3.53;;
45354;SDS011;31091;48.758;9.150;2023-06-26T14:46:53;5.50;;;3.30;;
45354;SDS011;31091;48.758;9.150;2023-06-26T14:49:39;4.85;;;3.05;;
45354;SDS011;31091;48.758;9.150;2023-06-26T14:52:24;5.63;;;3.13;;
45354;SDS011;31091;48.758;9.150;2023-06-26T14:55:10;4.72;;;2.88;;
45354;SDS011;31091;48.758;9.150;2023-06-26T14:57:55;6.07;;;3.30;;
45354;SDS011;31091;48.758;9.150;2023-06-26T15:00:41;4.50;;;3.20;;
45354;SDS011;31091;48.758;9.150;2023-06-26T15:03:26;4.82;;;3.13;;
45354;SDS011;31091;48.758;9.150;2023-06-26T15:06:12;5.05;;;3.22;;
45354;SDS011;31091;48.758;9.150;2023-06-26T15:08:58;5.32;;;3.03;;
45354;SDS011;31091;48.758;9.150;2023-06-26T15:11:43;4.47;;;2.90;;
45354;SDS011;31091;48.758;9.150;2023-06-26T15:14:29;4.70;;;2.90;;
45354;SDS011;31091;48.758;9.150;2023-06-26T15:17:14;4.65;;;3.28;;
45354;SDS011;31091;48.758;9.150;2023-06-26T15:20:00;4.43;;;3.28;;
45354;SDS011;31091;48.758;9.150;2023-06-26T15:22:45;6.65;;;3.25;;
45354;SDS011;31091;48.758;9.150;2023-06-26T15:25:31;6.68;;;3.17;;
45354;SDS011;31091;48.758;9.150;2023-06-26T15:28:17;7.28;;;3.50;;
45354;SDS011;31091;48.758;9.150;2023-06-26T15:31:02;8.27;;;4.45;;
45354;SDS011;31091;48.758;9.150;2023-06-26T15:33:48;6.88;;;3.95;;
45354;SDS011;31091;48.758;9.150;2023-06-26T15:36:34;8.18;;;4.40;;
45354;SDS011;31091;48.758;9.150;2023-06-26T15:39:20;6.28;;;4.22;;
45354;SDS011;31091;48.758;9.150;2023-06-26T15:42:06;7.10;;;3.90;;
45354;SDS011;31091;48.758;9.150;2023-06-26T15:44:51;9.25;;;4.03;;
45354;SDS011;31091;48.758;9.150;2023-06-26T15:47:37;7.22;;;4.72;;
45354;SDS011;31091;48.758;9.150;2023-06-26T15:55:59;10.20;;;4.82;;
45354;SDS011;31091;48.758;9.150;2023-06-26T15:58:36;8.70;;;4.38;;
45354;SDS011;31091;48.758;9.150;2023-06-26T16:01:26;8.40;;;4.63;;
45354;SDS011;31091;48.758;9.150;2023-06-26T16:04:11;6.97;;;4.57;;
45354;SDS011;31091;48.758;9.150;2023-06-26T16:06:57;9.23;;;5.38;;
45354;SDS011;31091;48.758;9.150;2023-06-26T16:09:42;7.20;;;4.47;;
45354;SDS011;31091;48.758;9.150;2023-06-26T16:12:28;9.48;;;5.10;;
45354;SDS011;31091;48.758;9.150;2023-06-26T16:15:13;9.38;;;5.32;;
45354;SDS011;31091;48.758;9.150;2023-06-26T16:17:58;8.00;;;4.95;;
45354;SDS011;31091;48.758;9.150;2023-06-26T16:20:43;9.18;;;5.15;;
45354;SDS011;31091;48.758;9.150;2023-06-26T16:23:28;8.57;;;4.75;;
45354;SDS011;31091;48.758;9.150;2023-06-26T16:26:14;11.10;;;5.68;;
45354;SDS011;31091;48.758;9.150;2023-06-26T16:29:00;10.65;;;5.47;;
45354;SDS011;31091;48.758;9.150;2023-06-26T16:31:45;8.77;;;5.85;;
45354;SDS011;31091;48.758;9.150;2023-06-26T16:34:31;8.20;;;4.40;;
45354;SDS011;31091;48.758;9.150;2023-06-26T16:37:16;9.10;;;5.32;;
45354;SDS011;31091;48.758;9.150;2023-06-26T16:40:02;9.90;;;5.57;;
45354;SDS011;31091;48.758;9.150;2023-06-26T16:42:48;9.77;;;5.90;;
45354;SDS011;31091;48.758;9.150;2023-06-26T16:45:33;11.90;;;5.82;;
45354;SDS011;31091;48.758;9.150;2023-06-26T16:48:18;7.97;;;4.72;;
45354;SDS011;31091;48.758;9.150;2023-06-26T16:51:05;7.03;;;4.25;;
45354;SDS011;31091;48.758;9.150;2023-06-26T16:53:50;6.15;;;4.10;;